Time;durP1;ratioP1;P1;durP2;ratioP2;P2;SDS_P1;SDS_P2;PMS_P1;PMS_P2;Temp;Humidity;BMP_temperature;BMP_pressure;BME280_temperature;BME280_humidity;BME280_pressure;Samples;Min_cycle;Max_cycle;Signal;HPM_P1;HPM_P2
2021/12/15 05:54:44;;;;;;;159.77;72.85;;;;;;;;;;5534065;23;20026;-64
2021/12/15 05:57:11;;;;;;;143.50;62.75;;;;;;;;;;4914107;29;20443;-65
2021/12/15 06:02:35;;;;;;;143.80;63.92;;;;;;;;;;4920194;29;20039;-65
2021/12/15 06:05:01;;;;;;;104.75;52.65;;;;;;;;;;4918782;29;20118;-66
2021/12/15 06:07:27;;;;;;;107.50;50.92;;;;;;;;;;4916178;29;20029;-65
2021/12/15 06:09:54;;;;;;;99.32;44.90;;;;;;;;;;4916532;29;20033;-66
2021/12/15 06:12:49;;;;;;;77.75;38.58;;;;;;;;;;4916575;29;20519;-65
2021/12/15 06:15:24;;;;;;;77.65;36.72;;;;;;;;;;4898980;29;20080;-65
2021/12/15 06:17:57;;;;;;;70.13;35.75;;;;;;;;;;4913212;29;20369;-65
2021/12/15 06:20:33;;;;;;;60.55;31.25;;;;;;;;;;4917060;29;20024;-66
2021/12/15 06:23:30;;;;;;;52.65;28.50;;;;;;;;;;4915012;29;20058;-65
2021/12/15 06:26:07;;;;;;;50.25;25.67;;;;;;;;;;4914044;29;20071;-66
2021/12/15 06:28:37;;;;;;;46.13;23.17;;;;;;;;;;4911905;29;20035;-67
2021/12/15 06:31:06;;;;;;;50.90;24.42;;;;;;;;;;4915996;29;20043;-64
2021/12/15 06:33:32;;;;;;;44.95;22.75;;;;;;;;;;4917391;29;20043;-64
2021/12/15 06:36:00;;;;;;;44.70;22.45;;;;;;;;;;4917078;29;20110;-64
2021/12/15 06:38:28;;;;;;;45.17;23.27;;;;;;;;;;4917225;29;20031;-65
2021/12/15 06:40:55;;;;;;;52.72;24.05;;;;;;;;;;4917330;29;20028;-64
2021/12/15 06:43:21;;;;;;;52.70;24.52;;;;;;;;;;4917249;29;20034;-64
2021/12/15 06:46:14;;;;;;;53.80;25.02;;;;;;;;;;4917131;29;20043;-65
2021/12/15 06:59:39;;;;;;;75.28;35.70;;;;;;;;;;4916874;29;20087;-64
2021/12/15 07:02:06;;;;;;;53.33;26.35;;;;;;;;;;4916673;29;20030;-62
2021/12/15 07:04:32;;;;;;;50.50;24.92;;;;;;;;;;4916587;29;20514;-62
2021/12/15 07:06:58;;;;;;;52.90;25.45;;;;;;;;;;4916365;29;20032;-65
2021/12/15 07:09:25;;;;;;;53.20;26.20;;;;;;;;;;4916282;29;20131;-60
2021/12/15 07:11:52;;;;;;;57.72;27.10;;;;;;;;;;4916718;29;20063;-60
2021/12/15 07:14:19;;;;;;;54.05;26.20;;;;;;;;;;4916391;29;20039;-61
2021/12/15 07:16:54;;;;;;;57.78;26.88;;;;;;;;;;4917810;29;20471;-63
2021/12/15 07:22:16;;;;;;;58.83;27.25;;;;;;;;;;4916857;29;20123;-61
2021/12/15 07:24:42;;;;;;;57.55;26.77;;;;;;;;;;4915800;29;20118;-61
2021/12/15 07:27:08;;;;;;;62.15;30.48;;;;;;;;;;4916037;29;20024;-62
2021/12/15 07:29:35;;;;;;;59.63;29.70;;;;;;;;;;4916873;29;20039;-62
2021/12/15 07:32:02;;;;;;;63.40;30.45;;;;;;;;;;4916505;29;20036;-62
2021/12/15 07:34:28;;;;;;;66.45;31.88;;;;;;;;;;4917113;29;20054;-62
2021/12/15 07:36:54;;;;;;;71.10;33.72;;;;;;;;;;4917092;29;20483;-63
2021/12/15 07:39:20;;;;;;;78.75;39.33;;;;;;;;;;4917249;29;20503;-66
2021/12/15 07:42:03;;;;;;;87.35;39.28;;;;;;;;;;4916019;29;20052;-68
2021/12/15 07:44:29;;;;;;;;;;;;;;;;;;4917251;29;20020;-68
2021/12/15 07:46:55;;;;;;;71.78;32.42;;;;;;;;;;4916872;29;20002;-68
2021/12/15 07:49:23;;;;;;;77.60;35.60;;;;;;;;;;4916334;29;20024;-68
2021/12/15 07:51:53;;;;;;;74.25;34.50;;;;;;;;;;4916327;29;20040;-68
2021/12/15 07:54:20;;;;;;;71.57;33.13;;;;;;;;;;4914855;29;20025;-68
2021/12/15 07:56:46;;;;;;;75.05;33.78;;;;;;;;;;4915280;29;20820;-69
2021/12/15 07:59:12;;;;;;;78.85;34.25;;;;;;;;;;4915941;29;20031;-68
2021/12/15 08:01:38;;;;;;;73.00;32.35;;;;;;;;;;4916093;29;20423;-66
2021/12/15 08:04:05;;;;;;;75.93;33.10;;;;;;;;;;4916005;29;20028;-66
2021/12/15 08:06:33;;;;;;;83.07;34.95;;;;;;;;;;4914886;29;20456;-70
2021/12/15 08:09:00;;;;;;;86.43;35.70;;;;;;;;;;4913821;29;20028;-64
2021/12/15 08:11:26;;;;;;;89.57;37.80;;;;;;;;;;4915199;29;20091;-66
2021/12/15 08:13:52;;;;;;;86.53;36.45;;;;;;;;;;4915297;29;20475;-67
2021/12/15 08:16:19;;;;;;;88.38;36.90;;;;;;;;;;4915547;29;20040;-65
2021/12/15 08:18:46;;;;;;;94.80;37.17;;;;;;;;;;4912461;29;20016;-65
2021/12/15 08:21:13;;;;;;;103.20;39.20;;;;;;;;;;4914560;29;20031;-66
2021/12/15 08:23:39;;;;;;;99.00;38.83;;;;;;;;;;4914742;29;20028;-66
2021/12/15 08:26:05;;;;;;;91.10;36.08;;;;;;;;;;4912670;29;20543;-66
2021/12/15 08:28:32;;;;;;;96.05;38.03;;;;;;;;;;4914560;29;20036;-66
2021/12/15 08:30:59;;;;;;;97.13;37.63;;;;;;;;;;4916122;29;20129;-67
2021/12/15 08:33:26;;;;;;;94.97;37.72;;;;;;;;;;4912681;29;20023;-64
2021/12/15 08:36:01;;;;;;;92.93;36.53;;;;;;;;;;4915191;29;20028;-66
2021/12/15 08:38:28;;;;;;;92.70;38.10;;;;;;;;;;4912589;29;20480;-66
2021/12/15 08:40:54;;;;;;;91.00;36.30;;;;;;;;;;4912932;29;20131;-66
2021/12/15 08:43:21;;;;;;;95.93;38.22;;;;;;;;;;4915709;29;20067;-67
2021/12/15 08:45:52;;;;;;;102.07;42.15;;;;;;;;;;4914528;29;20036;-64
2021/12/15 08:48:18;;;;;;;92.05;38.17;;;;;;;;;;4912365;29;20029;-64
2021/12/15 08:50:45;;;;;;;100.85;40.80;;;;;;;;;;4915461;29;20475;-65
2021/12/15 08:53:11;;;;;;;101.68;39.38;;;;;;;;;;4914353;29;20036;-66
2021/12/15 08:55:39;;;;;;;96.38;40.42;;;;;;;;;;4915096;29;20139;-66
2021/12/15 08:58:06;;;;;;;113.25;45.83;;;;;;;;;;4915692;29;20412;-68
2021/12/15 09:00:33;;;;;;;102.53;42.78;;;;;;;;;;4915332;29;20094;-65
2021/12/15 09:02:59;;;;;;;114.30;45.08;;;;;;;;;;4933704;29;20077;-67
2021/12/15 09:05:26;;;;;;;100.45;40.72;;;;;;;;;;4934725;29;20106;-65
2021/12/15 09:07:54;;;;;;;105.30;40.13;;;;;;;;;;4932213;29;20055;-65
2021/12/15 09:10:21;;;;;;;101.25;41.42;;;;;;;;;;4914198;29;20090;-66
2021/12/15 09:12:48;;;;;;;98.80;38.38;;;;;;;;;;4915277;29;20024;-65
2021/12/15 09:15:14;;;;;;;95.40;38.92;;;;;;;;;;4914449;29;20535;-71
2021/12/15 09:17:41;;;;;;;99.10;40.00;;;;;;;;;;4913182;29;20040;-67
2021/12/15 09:20:09;;;;;;;98.80;41.47;;;;;;;;;;4909991;29;20135;-67
2021/12/15 09:22:35;;;;;;;109.55;47.22;;;;;;;;;;4913412;29;20028;-66
2021/12/15 09:25:01;;;;;;;110.20;43.97;;;;;;;;;;4913466;29;20024;-64
2021/12/15 09:27:28;;;;;;;110.55;42.67;;;;;;;;;;4914049;29;20043;-67
2021/12/15 09:29:54;;;;;;;97.82;40.67;;;;;;;;;;4913692;29;20028;-67
2021/12/15 09:32:20;;;;;;;107.35;41.97;;;;;;;;;;4913141;29;20031;-66
2021/12/15 09:34:46;;;;;;;105.00;42.17;;;;;;;;;;4913763;29;20421;-62
2021/12/15 09:37:12;;;;;;;113.65;43.45;;;;;;;;;;4914668;29;20036;-66
2021/12/15 09:39:38;;;;;;;124.28;46.95;;;;;;;;;;4913404;29;20480;-63
2021/12/15 09:42:05;;;;;;;114.68;46.35;;;;;;;;;;4913776;29;20023;-62
2021/12/15 09:44:31;;;;;;;119.13;46.97;;;;;;;;;;4913879;29;20028;-62
2021/12/15 10:03:04;;;;;;;120.60;44.05;;;;;;;;;;4912381;29;20090;-62
2021/12/15 10:19:40;;;;;;;127.93;48.35;;;;;;;;;;4892878;29;20039;-66
2021/12/15 10:22:38;;;;;;;104.72;42.20;;;;;;;;;;4893661;29;20033;-65
2021/12/15 10:25:07;;;;;;;109.82;44.10;;;;;;;;;;4893488;29;20496;-65
2021/12/15 10:27:52;;;;;;;122.38;47.85;;;;;;;;;;4893449;29;20064;-65
2021/12/15 10:30:24;;;;;;;117.72;47.65;;;;;;;;;;4877629;29;20052;-68
2021/12/15 10:32:54;;;;;;;127.55;50.05;;;;;;;;;;4892889;29;20063;-66
2021/12/15 10:35:22;;;;;;;125.03;51.42;;;;;;;;;;4893081;29;20032;-67
2021/12/15 10:38:06;;;;;;;121.97;47.75;;;;;;;;;;4893218;29;20045;-67
2021/12/15 10:40:32;;;;;;;111.05;45.78;;;;;;;;;;4893273;29;20500;-67
2021/12/15 10:43:03;;;;;;;114.60;45.75;;;;;;;;;;4893814;29;20099;-65
2021/12/15 10:45:35;;;;;;;115.72;46.13;;;;;;;;;;4914342;29;20024;-65
2021/12/15 10:48:01;;;;;;;114.60;47.50;;;;;;;;;;4914383;29;20024;-65
2021/12/15 10:50:27;;;;;;;116.13;45.80;;;;;;;;;;4914072;29;20079;-65
2021/12/15 10:53:01;;;;;;;113.88;44.58;;;;;;;;;;4914288;29;20084;-66
2021/12/15 10:55:31;;;;;;;108.18;43.17;;;;;;;;;;4914089;29;20100;-67
2021/12/15 10:57:58;;;;;;;108.43;42.50;;;;;;;;;;4914343;29;20500;-65
2021/12/15 11:00:24;;;;;;;110.15;42.92;;;;;;;;;;4913707;29;20025;-62
2021/12/15 11:02:50;;;;;;;100.00;40.28;;;;;;;;;;4913698;29;20369;-62
2021/12/15 11:05:18;;;;;;;103.20;42.45;;;;;;;;;;4913869;29;20491;-62
2021/12/15 11:07:52;;;;;;;104.55;43.72;;;;;;;;;;4914432;29;20432;-64
2021/12/15 11:10:24;;;;;;;113.70;44.08;;;;;;;;;;4914432;29;20071;-62
2021/12/15 11:12:57;;;;;;;102.97;41.70;;;;;;;;;;4896946;29;20043;-62
2021/12/15 11:15:31;;;;;;;104.38;43.15;;;;;;;;;;4913766;29;20028;-62
2021/12/15 11:18:02;;;;;;;96.70;41.65;;;;;;;;;;4916823;29;20039;-61
2021/12/15 11:20:33;;;;;;;101.50;43.00;;;;;;;;;;4917046;29;20072;-62
2021/12/15 11:23:02;;;;;;;94.68;40.08;;;;;;;;;;4917276;29;20029;-62
2021/12/15 11:25:28;;;;;;;94.95;40.55;;;;;;;;;;4917039;29;20365;-61
2021/12/15 11:27:57;;;;;;;92.38;40.05;;;;;;;;;;4916267;29;20044;-62
2021/12/15 11:30:26;;;;;;;94.53;39.80;;;;;;;;;;4916126;29;20035;-62
2021/12/15 11:32:53;;;;;;;91.18;38.15;;;;;;;;;;4917067;29;20047;-62
2021/12/15 11:35:25;;;;;;;85.90;37.78;;;;;;;;;;4915674;29;20035;-62
2021/12/15 11:38:07;;;;;;;86.65;38.65;;;;;;;;;;4917054;29;20686;-62
2021/12/15 11:40:33;;;;;;;;;;;;;;;;;;4917658;29;20092;-62
2021/12/15 11:43:00;;;;;;;100.05;42.30;;;;;;;;;;4916950;29;19911;-64
2021/12/15 11:45:26;;;;;;;111.45;45.75;;;;;;;;;;4916902;29;20039;-62
2021/12/15 11:48:09;;;;;;;95.57;40.95;;;;;;;;;;4916357;29;20039;-61
2021/12/15 11:50:37;;;;;;;102.13;40.90;;;;;;;;;;4916479;29;20024;-61
2021/12/15 11:53:04;;;;;;;107.07;43.38;;;;;;;;;;4917002;29;20032;-62
2021/12/15 11:55:31;;;;;;;121.18;47.38;;;;;;;;;;4916655;29;20040;-60
2021/12/15 11:57:57;;;;;;;100.45;43.72;;;;;;;;;;4916581;29;20518;-61
2021/12/15 12:00:26;;;;;;;115.55;45.78;;;;;;;;;;4916522;29;20028;-62
2021/12/15 12:02:54;;;;;;;108.22;43.78;;;;;;;;;;4916431;29;20028;-63
2021/12/15 12:05:24;;;;;;;110.43;43.05;;;;;;;;;;4916400;29;20439;-66
2021/12/15 12:07:54;;;;;;;106.88;45.58;;;;;;;;;;4916527;29;20024;-61
2021/12/15 12:10:28;;;;;;;97.50;42.33;;;;;;;;;;4916501;29;20032;-62
2021/12/15 12:13:10;;;;;;;97.57;41.17;;;;;;;;;;4916338;29;20051;-61
2021/12/15 12:15:38;;;;;;;101.22;42.42;;;;;;;;;;4916019;29;20135;-62
2021/12/15 12:18:07;;;;;;;99.70;43.00;;;;;;;;;;4916303;29;20091;-62
2021/12/15 12:20:35;;;;;;;111.80;44.13;;;;;;;;;;4916005;29;20036;-62
2021/12/15 12:23:03;;;;;;;95.80;41.75;;;;;;;;;;4916093;29;20524;-62
2021/12/15 12:25:33;;;;;;;100.72;41.25;;;;;;;;;;4916265;29;20032;-64
2021/12/15 12:28:00;;;;;;;103.07;43.05;;;;;;;;;;4915524;29;20059;-62
2021/12/15 12:30:29;;;;;;;113.38;46.25;;;;;;;;;;4915907;29;20068;-61
2021/12/15 12:32:56;;;;;;;110.35;44.95;;;;;;;;;;4916002;29;20024;-62
2021/12/15 12:35:31;;;;;;;98.80;40.97;;;;;;;;;;4915729;29;20028;-61
2021/12/15 12:37:59;;;;;;;102.20;42.50;;;;;;;;;;4915568;29;20032;-62
2021/12/15 12:40:33;;;;;;;115.57;43.65;;;;;;;;;;4916118;29;20051;-61
2021/12/15 12:42:59;;;;;;;110.18;43.90;;;;;;;;;;4915640;29;20145;-64
2021/12/15 12:45:31;;;;;;;106.35;40.83;;;;;;;;;;4915801;29;20473;-61
2021/12/15 12:48:27;;;;;;;104.60;43.28;;;;;;;;;;4916000;29;20032;-61
2021/12/15 12:59:30;;;;;;;108.90;43.47;;;;;;;;;;4915669;29;20506;-61
2021/12/15 13:01:57;;;;;;;106.20;42.42;;;;;;;;;;4915065;29;20037;-63
2021/12/15 13:04:34;;;;;;;105.10;42.75;;;;;;;;;;4915507;29;20028;-61
2021/12/15 13:07:00;;;;;;;112.20;44.75;;;;;;;;;;4915502;29;20111;-62
2021/12/15 13:09:27;;;;;;;98.63;43.42;;;;;;;;;;4915303;29;20039;-62
2021/12/15 13:11:53;;;;;;;102.30;42.05;;;;;;;;;;4915507;29;20040;-61
2021/12/15 13:14:22;;;;;;;105.63;41.70;;;;;;;;;;4915559;29;20032;-61
2021/12/15 13:16:51;;;;;;;102.28;39.95;;;;;;;;;;4914892;29;20039;-63
2021/12/15 13:19:17;;;;;;;101.63;41.50;;;;;;;;;;4915678;29;20040;-61
2021/12/15 13:21:43;;;;;;;96.10;39.92;;;;;;;;;;4915188;29;20028;-62
2021/12/15 13:28:40;;;;;;;96.53;38.90;;;;;;;;;;4915107;29;20036;-65
2021/12/15 13:30:01;;;;;;;101.57;39.85;;;;;;;;;;4914980;29;20038;-63
2021/12/15 13:32:30;;;;;;;91.25;37.92;;;;;;;;;;4914658;29;20036;-62
2021/12/15 13:34:56;;;;;;;89.70;39.33;;;;;;;;;;4915145;29;20047;-63
2021/12/15 13:37:41;;;;;;;94.78;39.63;;;;;;;;;;4914967;29;20043;-61
2021/12/15 13:40:10;;;;;;;99.65;41.42;;;;;;;;;;4913867;29;20303;-66
2021/12/15 13:42:38;;;;;;;94.45;40.00;;;;;;;;;;4914625;29;20027;-60
2021/12/15 13:45:04;;;;;;;93.53;39.83;;;;;;;;;;4915107;29;20392;-64
2021/12/15 13:47:30;;;;;;;94.95;41.25;;;;;;;;;;4914775;29;20035;-62
2021/12/15 13:49:57;;;;;;;93.70;39.90;;;;;;;;;;4914567;29;20028;-62
2021/12/15 13:52:34;;;;;;;90.75;39.38;;;;;;;;;;4914096;29;20032;-62
2021/12/15 13:55:02;;;;;;;91.93;38.03;;;;;;;;;;4913305;29;20388;-61
2021/12/15 13:57:29;;;;;;;90.90;39.45;;;;;;;;;;4914508;29;20048;-62
2021/12/15 14:00:04;;;;;;;88.25;38.33;;;;;;;;;;4914541;29;20455;-62
2021/12/15 14:02:32;;;;;;;88.15;40.30;;;;;;;;;;4914668;29;20100;-63
2021/12/15 14:05:05;;;;;;;88.40;38.05;;;;;;;;;;4914864;29;20046;-61
2021/12/15 14:07:31;;;;;;;96.55;42.78;;;;;;;;;;4914386;29;20420;-60
2021/12/15 14:10:00;;;;;;;101.07;45.33;;;;;;;;;;4914259;29;20032;-62
2021/12/15 14:12:48;;;;;;;91.68;41.25;;;;;;;;;;4914316;29;20495;-65
2021/12/15 14:15:33;;;;;;;87.90;39.65;;;;;;;;;;4914216;29;20059;-63
2021/12/15 14:18:01;;;;;;;90.25;37.47;;;;;;;;;;4914298;29;20539;-65
2021/12/15 14:20:28;;;;;;;88.20;37.08;;;;;;;;;;4914389;29;20028;-62
2021/12/15 14:22:58;;;;;;;100.30;41.65;;;;;;;;;;4913885;29;20412;-63
2021/12/15 14:25:24;;;;;;;98.22;39.97;;;;;;;;;;4914876;29;20492;-64
2021/12/15 14:27:50;;;;;;;87.00;37.35;;;;;;;;;;4914700;29;20032;-64
2021/12/15 14:30:17;;;;;;;89.55;38.30;;;;;;;;;;4914272;29;20382;-64
2021/12/15 14:32:44;;;;;;;96.43;39.47;;;;;;;;;;4914148;29;20469;-62
2021/12/15 14:35:36;;;;;;;103.03;44.15;;;;;;;;;;4912467;29;20536;-65
2021/12/15 14:38:02;;;;;;;101.07;44.10;;;;;;;;;;4912398;29;20056;-62
2021/12/15 14:40:29;;;;;;;97.05;45.47;;;;;;;;;;4914508;29;20107;-65
2021/12/15 14:42:55;;;;;;;96.15;43.10;;;;;;;;;;4914319;29;20028;-61
2021/12/15 14:45:22;;;;;;;87.45;40.58;;;;;;;;;;4913795;29;20035;-67
2021/12/15 14:47:48;;;;;;;87.55;38.85;;;;;;;;;;4914538;29;20543;-62
2021/12/15 14:50:16;;;;;;;75.25;34.65;;;;;;;;;;4915809;29;20036;-63
2021/12/15 14:52:45;;;;;;;71.95;33.22;;;;;;;;;;4925524;29;20032;-63
2021/12/15 14:55:13;;;;;;;70.97;31.10;;;;;;;;;;4936556;29;20083;-62
2021/12/15 14:57:39;;;;;;;71.07;30.88;;;;;;;;;;4932363;29;20094;-62
2021/12/15 15:00:16;;;;;;;72.72;31.48;;;;;;;;;;4917604;29;20055;-61
2021/12/15 15:02:44;;;;;;;71.35;33.22;;;;;;;;;;4915847;29;20067;-64
2021/12/15 15:05:10;;;;;;;71.93;31.63;;;;;;;;;;4917570;29;20539;-62
2021/12/15 15:07:38;;;;;;;70.22;30.00;;;;;;;;;;4917348;29;20040;-62
2021/12/15 15:10:15;;;;;;;64.90;29.90;;;;;;;;;;4917526;29;20051;-62
2021/12/15 15:12:42;;;;;;;70.35;31.08;;;;;;;;;;4916991;29;20031;-62
2021/12/15 15:15:13;;;;;;;64.05;28.77;;;;;;;;;;4917562;29;20036;-62
2021/12/15 15:18:02;;;;;;;65.53;28.00;;;;;;;;;;4917786;29;20117;-63
2021/12/15 15:20:31;;;;;;;67.05;28.58;;;;;;;;;;4917277;29;20030;-64
2021/12/15 15:23:08;;;;;;;67.22;28.95;;;;;;;;;;4917236;29;20038;-64
2021/12/15 15:25:35;;;;;;;64.47;28.30;;;;;;;;;;4917424;29;20111;-62
2021/12/15 15:28:04;;;;;;;63.28;29.02;;;;;;;;;;4917418;29;20156;-63
2021/12/15 15:30:31;;;;;;;66.65;28.58;;;;;;;;;;4917576;29;20049;-62
2021/12/15 15:32:59;;;;;;;67.75;29.48;;;;;;;;;;4917245;29;20625;-62
2021/12/15 15:35:30;;;;;;;67.80;28.95;;;;;;;;;;4914924;29;20501;-64
2021/12/15 15:37:57;;;;;;;83.20;37.17;;;;;;;;;;4915855;29;20024;-62
2021/12/15 15:40:29;;;;;;;71.25;31.30;;;;;;;;;;4915757;29;20032;-62
2021/12/15 15:43:00;;;;;;;64.90;30.00;;;;;;;;;;4914857;29;20028;-62
2021/12/15 15:45:28;;;;;;;65.45;28.40;;;;;;;;;;4914333;29;20028;-61
2021/12/15 15:47:56;;;;;;;70.30;29.30;;;;;;;;;;4913244;29;20025;-61
2021/12/15 15:50:22;;;;;;;66.28;31.40;;;;;;;;;;4914659;29;20032;-61
2021/12/15 15:52:50;;;;;;;67.43;30.58;;;;;;;;;;4914919;29;20036;-62
2021/12/15 15:55:17;;;;;;;66.55;29.65;;;;;;;;;;4914850;29;20032;-61
2021/12/15 15:58:06;;;;;;;69.13;30.50;;;;;;;;;;4915421;29;20031;-62
2021/12/15 16:00:35;;;;;;;69.97;30.10;;;;;;;;;;4914895;29;20028;-61
2021/12/15 16:03:01;;;;;;;75.60;33.95;;;;;;;;;;4914176;29;20024;-61
2021/12/15 16:05:28;;;;;;;74.55;33.20;;;;;;;;;;4915303;29;20400;-61
2021/12/15 16:07:54;;;;;;;65.13;31.20;;;;;;;;;;4912682;29;20032;-61
2021/12/15 16:10:23;;;;;;;75.55;32.55;;;;;;;;;;4914819;29;20599;-61
2021/12/15 16:12:50;;;;;;;73.32;31.92;;;;;;;;;;4917328;29;20027;-64
2021/12/15 16:15:16;;;;;;;74.95;33.45;;;;;;;;;;4917299;29;20044;-63
2021/12/15 16:17:54;;;;;;;75.18;33.83;;;;;;;;;;4915331;29;20107;-63
2021/12/15 16:20:27;;;;;;;73.18;32.28;;;;;;;;;;4916567;29;20162;-61
2021/12/15 16:23:03;;;;;;;70.38;33.05;;;;;;;;;;4916644;29;20080;-64
2021/12/15 16:25:37;;;;;;;72.55;33.45;;;;;;;;;;4914186;29;20486;-64
2021/12/15 16:28:18;;;;;;;71.97;33.50;;;;;;;;;;4916171;29;20083;-63
2021/12/15 16:30:50;;;;;;;79.03;35.00;;;;;;;;;;4916229;29;20040;-63
2021/12/15 16:33:22;;;;;;;79.10;33.63;;;;;;;;;;4916086;29;20039;-62
2021/12/15 16:35:49;;;;;;;71.95;33.40;;;;;;;;;;4914414;29;20051;-61
2021/12/15 16:38:29;;;;;;;73.25;33.17;;;;;;;;;;4914697;29;20029;-61
2021/12/15 16:41:01;;;;;;;79.10;34.45;;;;;;;;;;4913753;29;20792;-63
2021/12/15 16:43:43;;;;;;;85.25;35.80;;;;;;;;;;4914381;29;20017;-62
2021/12/15 16:46:13;;;;;;;61.53;28.60;;;;;;;;;;4912761;29;20040;-63
2021/12/15 16:48:40;;;;;;;83.38;35.95;;;;;;;;;;4913406;29;20150;-61
2021/12/15 16:51:08;;;;;;;84.53;36.97;;;;;;;;;;4911914;29;20036;-62
2021/12/15 16:53:45;;;;;;;87.13;37.22;;;;;;;;;;4914798;29;20024;-62
2021/12/15 16:56:23;;;;;;;88.22;36.65;;;;;;;;;;4912272;29;20056;-63
2021/12/15 16:59:25;;;;;;;84.30;37.47;;;;;;;;;;4911741;29;20036;-61
2021/12/15 17:01:53;;;;;;;91.38;38.78;;;;;;;;;;4855914;29;20116;-62
2021/12/15 17:04:21;;;;;;;85.70;38.22;;;;;;;;;;4853968;29;20045;-64
2021/12/15 17:06:48;;;;;;;90.95;38.90;;;;;;;;;;4856052;29;20037;-61
2021/12/15 17:09:24;;;;;;;87.63;39.72;;;;;;;;;;4855979;29;20089;-61
2021/12/15 17:11:52;;;;;;;89.53;40.55;;;;;;;;;;4855808;29;20053;-61
2021/12/15 17:14:21;;;;;;;97.65;42.13;;;;;;;;;;4854936;29;20021;-61
2021/12/15 17:16:48;;;;;;;96.03;40.97;;;;;;;;;;4855488;29;20068;-62
2021/12/15 17:19:18;;;;;;;94.28;40.35;;;;;;;;;;4855280;29;20032;-61
2021/12/15 17:21:44;;;;;;;87.53;40.30;;;;;;;;;;4853650;29;20041;-62
2021/12/15 17:24:11;;;;;;;86.88;39.83;;;;;;;;;;4856915;29;20486;-61
2021/12/15 17:26:39;;;;;;;102.45;42.88;;;;;;;;;;4857076;29;20029;-62
2021/12/15 17:29:05;;;;;;;95.18;42.88;;;;;;;;;;4856655;29;20132;-61
2021/12/15 17:31:35;;;;;;;98.53;42.17;;;;;;;;;;4857006;29;20911;-62
2021/12/15 17:34:06;;;;;;;91.97;40.92;;;;;;;;;;4856864;29;20044;-62
2021/12/15 17:36:37;;;;;;;101.13;43.30;;;;;;;;;;4902905;29;20511;-63
2021/12/15 17:39:21;;;;;;;97.93;42.10;;;;;;;;;;4914759;29;20093;-63
2021/12/15 17:42:07;;;;;;;95.88;42.65;;;;;;;;;;4914704;29;20032;-62
2021/12/15 17:44:37;;;;;;;91.05;41.95;;;;;;;;;;4907358;29;20044;-62
2021/12/15 17:47:03;;;;;;;95.25;41.60;;;;;;;;;;4914713;29;20114;-61
2021/12/15 17:49:41;;;;;;;103.00;46.58;;;;;;;;;;4913361;29;20039;-61
2021/12/15 17:52:11;;;;;;;92.75;41.40;;;;;;;;;;4915015;29;20040;-61
2021/12/15 17:54:39;;;;;;;96.82;42.60;;;;;;;;;;4914321;29;20035;-62
2021/12/15 17:57:07;;;;;;;94.13;41.80;;;;;;;;;;4913507;29;20091;-61
2021/12/15 17:59:35;;;;;;;92.80;41.72;;;;;;;;;;4914274;29;20438;-61
2021/12/15 18:02:01;;;;;;;92.00;40.83;;;;;;;;;;4913562;29;20027;-61
2021/12/15 18:04:28;;;;;;;95.40;42.08;;;;;;;;;;4913670;29;20047;-62
2021/12/15 18:06:54;;;;;;;97.32;42.92;;;;;;;;;;4912127;29;20044;-63
2021/12/15 18:09:26;;;;;;;90.78;41.30;;;;;;;;;;4913432;29;20035;-61
2021/12/15 18:11:52;;;;;;;93.93;42.45;;;;;;;;;;4913657;29;20082;-62
2021/12/15 18:14:19;;;;;;;98.70;43.22;;;;;;;;;;4913542;29;20052;-64
2021/12/15 18:16:45;;;;;;;94.53;42.45;;;;;;;;;;4913374;29;20092;-62
2021/12/15 18:19:11;;;;;;;102.07;45.80;;;;;;;;;;4913237;29;20020;-63
2021/12/15 18:21:39;;;;;;;105.22;45.90;;;;;;;;;;4913392;29;20406;-64
2021/12/15 18:24:06;;;;;;;102.15;45.22;;;;;;;;;;4913263;29;20024;-67
2021/12/15 18:26:33;;;;;;;99.55;44.55;;;;;;;;;;4914256;29;20024;-63
2021/12/15 18:28:59;;;;;;;102.03;44.47;;;;;;;;;;4917038;29;20133;-62
2021/12/15 18:31:28;;;;;;;94.50;44.60;;;;;;;;;;4917254;29;20071;-62
2021/12/15 18:33:55;;;;;;;101.07;44.13;;;;;;;;;;4914668;29;20043;-62
2021/12/15 18:36:21;;;;;;;100.25;44.95;;;;;;;;;;4917380;29;20094;-63
2021/12/15 18:38:47;;;;;;;102.82;46.78;;;;;;;;;;4916812;29;20032;-62
2021/12/15 18:41:18;;;;;;;93.13;43.28;;;;;;;;;;4916584;29;20115;-63
2021/12/15 18:43:44;;;;;;;100.13;45.58;;;;;;;;;;4900911;29;20054;-62
2021/12/15 18:46:14;;;;;;;99.15;45.80;;;;;;;;;;4917264;29;20115;-63
2021/12/15 18:48:40;;;;;;;102.32;45.75;;;;;;;;;;4917967;29;20024;-62
2021/12/15 18:51:06;;;;;;;104.28;47.08;;;;;;;;;;4917912;29;20066;-62
2021/12/15 18:53:34;;;;;;;101.55;46.90;;;;;;;;;;4918050;29;20033;-62
2021/12/15 18:56:03;;;;;;;104.03;45.88;;;;;;;;;;4917967;29;20056;-62
2021/12/15 18:58:33;;;;;;;100.72;44.90;;;;;;;;;;4917792;29;20027;-62
2021/12/15 19:01:00;;;;;;;101.38;46.08;;;;;;;;;;4917615;29;20039;-62
2021/12/15 19:03:27;;;;;;;103.85;47.42;;;;;;;;;;4917969;29;20028;-63
2021/12/15 19:05:53;;;;;;;97.00;45.72;;;;;;;;;;4917725;29;20039;-62
2021/12/15 19:08:19;;;;;;;96.97;46.25;;;;;;;;;;4917872;29;20039;-62
2021/12/15 19:10:46;;;;;;;102.82;44.92;;;;;;;;;;4917732;29;20048;-62
2021/12/15 19:13:12;;;;;;;97.05;43.33;;;;;;;;;;4917776;29;20376;-63
2021/12/15 19:15:41;;;;;;;98.53;45.28;;;;;;;;;;4917590;29;20119;-62
2021/12/15 19:18:12;;;;;;;94.68;44.88;;;;;;;;;;4917853;29;20072;-62
2021/12/15 19:20:41;;;;;;;95.00;45.08;;;;;;;;;;4918056;29;20028;-61
2021/12/15 19:23:07;;;;;;;112.20;51.50;;;;;;;;;;4917721;29;20492;-62
2021/12/15 19:25:33;;;;;;;108.70;51.30;;;;;;;;;;4917467;29;20047;-62
2021/12/15 19:27:59;;;;;;;108.30;51.33;;;;;;;;;;4917051;29;20024;-62
2021/12/15 19:30:31;;;;;;;113.13;51.75;;;;;;;;;;4916915;29;20464;-62
2021/12/15 19:32:59;;;;;;;100.30;47.20;;;;;;;;;;4918473;29;20064;-62
2021/12/15 19:35:25;;;;;;;97.53;45.17;;;;;;;;;;4917867;29;20028;-62
2021/12/15 19:37:51;;;;;;;96.97;44.95;;;;;;;;;;4916067;29;20484;-62
2021/12/15 19:40:19;;;;;;;95.72;44.13;;;;;;;;;;4917332;29;20036;-62
2021/12/15 19:42:46;;;;;;;94.75;45.28;;;;;;;;;;4916616;29;20107;-62
2021/12/15 19:45:12;;;;;;;92.88;46.17;;;;;;;;;;4916791;29;20032;-64
2021/12/15 19:47:38;;;;;;;91.18;44.08;;;;;;;;;;4917160;29;20028;-62
2021/12/15 19:50:07;;;;;;;94.22;43.85;;;;;;;;;;4917667;29;20044;-62
2021/12/15 19:52:33;;;;;;;89.43;42.13;;;;;;;;;;4916956;29;20028;-64
2021/12/15 19:54:59;;;;;;;84.68;40.38;;;;;;;;;;4916687;29;20032;-64
2021/12/15 19:57:25;;;;;;;83.57;40.03;;;;;;;;;;4916695;29;20052;-63
2021/12/15 19:59:52;;;;;;;90.63;43.83;;;;;;;;;;4923348;29;20396;-63
2021/12/15 20:02:19;;;;;;;81.07;40.25;;;;;;;;;;4935960;29;20031;-65
2021/12/15 20:04:45;;;;;;;85.25;43.53;;;;;;;;;;4934225;29;20050;-63
2021/12/15 20:07:12;;;;;;;77.90;38.45;;;;;;;;;;4935403;29;20040;-62
2021/12/15 20:09:39;;;;;;;85.07;42.85;;;;;;;;;;4935742;29;20035;-63
2021/12/15 20:12:08;;;;;;;90.40;43.17;;;;;;;;;;4934915;29;20387;-62
2021/12/15 20:14:35;;;;;;;103.00;48.35;;;;;;;;;;4934858;29;20049;-62
2021/12/15 20:17:04;;;;;;;95.40;47.35;;;;;;;;;;4916339;29;20036;-62
2021/12/15 20:19:30;;;;;;;88.30;44.72;;;;;;;;;;4916086;29;20024;-62
2021/12/15 20:21:58;;;;;;;88.05;43.58;;;;;;;;;;4915400;29;20028;-62
2021/12/15 20:24:27;;;;;;;87.70;43.47;;;;;;;;;;4916203;29;20115;-63
2021/12/15 20:26:54;;;;;;;85.60;43.20;;;;;;;;;;4916271;29;20035;-63
2021/12/15 20:29:21;;;;;;;92.15;46.25;;;;;;;;;;4916237;29;20035;-62
2021/12/15 20:31:47;;;;;;;96.15;46.97;;;;;;;;;;4921680;29;20036;-64
2021/12/15 20:34:13;;;;;;;91.55;44.75;;;;;;;;;;4925268;29;20388;-64
2021/12/15 20:36:39;;;;;;;92.95;43.72;;;;;;;;;;4925806;29;20047;-64
2021/12/15 20:39:07;;;;;;;91.95;43.88;;;;;;;;;;4924029;29;20479;-64
2021/12/15 20:41:33;;;;;;;84.05;41.83;;;;;;;;;;4920492;29;20028;-63
2021/12/15 20:44:00;;;;;;;85.40;41.97;;;;;;;;;;4917950;29;20027;-61
2021/12/15 20:46:26;;;;;;;87.85;43.97;;;;;;;;;;4923916;29;20047;-63
2021/12/15 20:48:52;;;;;;;85.75;42.58;;;;;;;;;;4924327;29;20047;-61
2021/12/15 20:51:18;;;;;;;84.75;42.33;;;;;;;;;;4921737;29;20141;-64
2021/12/15 20:53:46;;;;;;;80.93;40.70;;;;;;;;;;4914153;29;20420;-63
2021/12/15 20:56:13;;;;;;;79.85;40.03;;;;;;;;;;4914425;29;20060;-64
2021/12/15 20:58:41;;;;;;;79.25;39.35;;;;;;;;;;4913838;29;20055;-67
2021/12/15 21:01:08;;;;;;;77.45;38.92;;;;;;;;;;4914487;29;20036;-67
2021/12/15 21:03:35;;;;;;;78.15;39.28;;;;;;;;;;4914274;29;20131;-67
2021/12/15 21:06:09;;;;;;;82.75;42.08;;;;;;;;;;4914674;29;20024;-66
2021/12/15 21:08:36;;;;;;;81.05;42.53;;;;;;;;;;4912085;29;20120;-70
2021/12/15 21:11:08;;;;;;;80.10;39.78;;;;;;;;;;4914710;29;20519;-68
2021/12/15 21:13:36;;;;;;;77.50;38.30;;;;;;;;;;4918748;29;20032;-67
2021/12/15 21:16:02;;;;;;;82.93;41.45;;;;;;;;;;4915129;29;20032;-63
2021/12/15 21:18:28;;;;;;;84.32;41.25;;;;;;;;;;4916125;29;20032;-62